sensor_id;sensor_type;location;lat;lon;timestamp;P1;durP1;ratioP1;P2;durP2;ratioP2
41943;SDS011;27636;52.610;13.244;2022-08-19T00:04:47;25.40;;;14.30;;
41943;SDS011;27636;52.610;13.244;2022-08-19T00:09:56;30.08;;;14.93;;
41943;SDS011;27636;52.610;13.244;2022-08-19T00:14:59;27.58;;;15.15;;
41943;SDS011;27636;52.610;13.244;2022-08-19T00:20:02;26.50;;;15.73;;
41943;SDS011;27636;52.610;13.244;2022-08-19T00:25:07;23.50;;;13.18;;
41943;SDS011;27636;52.610;13.244;2022-08-19T00:30:11;26.15;;;14.02;;
41943;SDS011;27636;52.610;13.244;2022-08-19T00:35:15;26.67;;;15.10;;
41943;SDS011;27636;52.610;13.244;2022-08-19T00:40:20;24.25;;;13.30;;
41943;SDS011;27636;52.610;13.244;2022-08-19T00:45:24;27.77;;;14.52;;
41943;SDS011;27636;52.610;13.244;2022-08-19T00:50:29;25.88;;;14.45;;
41943;SDS011;27636;52.610;13.244;2022-08-19T00:55:34;26.77;;;14.30;;
41943;SDS011;27636;52.610;13.244;2022-08-19T01:00:37;32.22;;;14.68;;
41943;SDS011;27636;52.610;13.244;2022-08-19T01:05:41;29.73;;;14.98;;
41943;SDS011;27636;52.610;13.244;2022-08-19T01:10:48;25.17;;;14.55;;
41943;SDS011;27636;52.610;13.244;2022-08-19T01:15:54;26.60;;;15.00;;
41943;SDS011;27636;52.610;13.244;2022-08-19T01:21:02;25.00;;;13.73;;
41943;SDS011;27636;52.610;13.244;2022-08-19T01:26:14;26.70;;;14.35;;
41943;SDS011;27636;52.610;13.244;2022-08-19T01:31:21;25.95;;;13.93;;
41943;SDS011;27636;52.610;13.244;2022-08-19T01:36:30;28.38;;;15.13;;
41943;SDS011;27636;52.610;13.244;2022-08-19T01:41:36;27.08;;;14.25;;
41943;SDS011;27636;52.610;13.244;2022-08-19T01:51:43;27.63;;;15.02;;
41943;SDS011;27636;52.610;13.244;2022-08-19T01:56:47;28.83;;;15.57;;
41943;SDS011;27636;52.610;13.244;2022-08-19T02:01:52;30.90;;;15.00;;
41943;SDS011;27636;52.610;13.244;2022-08-19T02:06:57;31.63;;;16.08;;
41943;SDS011;27636;52.610;13.244;2022-08-19T02:12:01;28.73;;;15.07;;
41943;SDS011;27636;52.610;13.244;2022-08-19T02:17:05;31.55;;;15.48;;
41943;SDS011;27636;52.610;13.244;2022-08-19T02:22:08;31.00;;;15.57;;
41943;SDS011;27636;52.610;13.244;2022-08-19T02:27:14;28.17;;;16.65;;
41943;SDS011;27636;52.610;13.244;2022-08-19T02:32:18;38.40;;;18.45;;
41943;SDS011;27636;52.610;13.244;2022-08-19T02:37:22;31.33;;;16.57;;
41943;SDS011;27636;52.610;13.244;2022-08-19T02:42:45;33.95;;;17.98;;
41943;SDS011;27636;52.610;13.244;2022-08-19T02:47:48;31.30;;;17.20;;
41943;SDS011;27636;52.610;13.244;2022-08-19T02:52:51;30.45;;;16.70;;
41943;SDS011;27636;52.610;13.244;2022-08-19T02:57:56;37.90;;;18.70;;
41943;SDS011;27636;52.610;13.244;2022-08-19T03:02:59;31.60;;;17.48;;
41943;SDS011;27636;52.610;13.244;2022-08-19T03:08:03;38.22;;;20.25;;
41943;SDS011;27636;52.610;13.244;2022-08-19T03:13:07;34.92;;;18.77;;
41943;SDS011;27636;52.610;13.244;2022-08-19T03:18:11;44.05;;;20.63;;
41943;SDS011;27636;52.610;13.244;2022-08-19T03:23:16;43.13;;;22.03;;
41943;SDS011;27636;52.610;13.244;2022-08-19T03:28:20;38.92;;;19.73;;
41943;SDS011;27636;52.610;13.244;2022-08-19T03:33:24;38.38;;;20.77;;
41943;SDS011;27636;52.610;13.244;2022-08-19T03:38:30;41.05;;;20.30;;
41943;SDS011;27636;52.610;13.244;2022-08-19T03:43:36;40.50;;;19.50;;
41943;SDS011;27636;52.610;13.244;2022-08-19T03:48:41;35.20;;;19.10;;
41943;SDS011;27636;52.610;13.244;2022-08-19T03:53:45;40.27;;;19.87;;
41943;SDS011;27636;52.610;13.244;2022-08-19T03:58:50;37.83;;;17.33;;
41943;SDS011;27636;52.610;13.244;2022-08-19T04:03:55;32.47;;;17.65;;
41943;SDS011;27636;52.610;13.244;2022-08-19T04:09:00;36.58;;;19.33;;
41943;SDS011;27636;52.610;13.244;2022-08-19T04:14:07;33.90;;;18.70;;
41943;SDS011;27636;52.610;13.244;2022-08-19T04:19:10;35.80;;;18.42;;
41943;SDS011;27636;52.610;13.244;2022-08-19T04:24:15;39.80;;;20.00;;
41943;SDS011;27636;52.610;13.244;2022-08-19T04:29:21;35.00;;;17.67;;
41943;SDS011;27636;52.610;13.244;2022-08-19T04:34:28;35.30;;;18.08;;
41943;SDS011;27636;52.610;13.244;2022-08-19T04:39:32;38.80;;;18.07;;
41943;SDS011;27636;52.610;13.244;2022-08-19T04:45:01;36.08;;;18.55;;
41943;SDS011;27636;52.610;13.244;2022-08-19T04:50:11;34.92;;;18.00;;
41943;SDS011;27636;52.610;13.244;2022-08-19T04:55:14;33.50;;;18.02;;
41943;SDS011;27636;52.610;13.244;2022-08-19T05:00:18;36.83;;;17.30;;
41943;SDS011;27636;52.610;13.244;2022-08-19T05:05:22;32.88;;;17.65;;
41943;SDS011;27636;52.610;13.244;2022-08-19T05:10:25;31.45;;;17.55;;
41943;SDS011;27636;52.610;13.244;2022-08-19T05:15:29;37.80;;;16.48;;
41943;SDS011;27636;52.610;13.244;2022-08-19T05:20:32;31.70;;;18.02;;
41943;SDS011;27636;52.610;13.244;2022-08-19T05:25:54;30.30;;;16.95;;
41943;SDS011;27636;52.610;13.244;2022-08-19T05:30:59;33.30;;;17.90;;
41943;SDS011;27636;52.610;13.244;2022-08-19T05:36:02;39.00;;;20.40;;
41943;SDS011;27636;52.610;13.244;2022-08-19T05:41:07;47.70;;;21.67;;
41943;SDS011;27636;52.610;13.244;2022-08-19T05:46:16;32.27;;;17.67;;
41943;SDS011;27636;52.610;13.244;2022-08-19T05:51:29;26.75;;;16.27;;
41943;SDS011;27636;52.610;13.244;2022-08-19T05:56:33;22.20;;;14.10;;
41943;SDS011;27636;52.610;13.244;2022-08-19T06:01:39;20.73;;;11.75;;
41943;SDS011;27636;52.610;13.244;2022-08-19T06:06:43;21.00;;;11.60;;
41943;SDS011;27636;52.610;13.244;2022-08-19T06:11:47;16.73;;;10.68;;
41943;SDS011;27636;52.610;13.244;2022-08-19T06:16:58;14.02;;;8.77;;
41943;SDS011;27636;52.610;13.244;2022-08-19T06:22:09;17.13;;;9.70;;
41943;SDS011;27636;52.610;13.244;2022-08-19T06:27:14;17.00;;;9.85;;
41943;SDS011;27636;52.610;13.244;2022-08-19T06:32:19;17.47;;;11.23;;
41943;SDS011;27636;52.610;13.244;2022-08-19T06:37:23;17.30;;;11.25;;
41943;SDS011;27636;52.610;13.244;2022-08-19T06:42:26;23.02;;;11.18;;
41943;SDS011;27636;52.610;13.244;2022-08-19T06:47:30;18.52;;;11.55;;
41943;SDS011;27636;52.610;13.244;2022-08-19T06:52:35;16.75;;;10.77;;
41943;SDS011;27636;52.610;13.244;2022-08-19T06:57:40;21.17;;;11.52;;
41943;SDS011;27636;52.610;13.244;2022-08-19T07:02:45;19.13;;;11.10;;
41943;SDS011;27636;52.610;13.244;2022-08-19T07:07:57;17.60;;;11.25;;
41943;SDS011;27636;52.610;13.244;2022-08-19T07:13:06;20.95;;;13.27;;
41943;SDS011;27636;52.610;13.244;2022-08-19T07:18:11;20.73;;;13.17;;
41943;SDS011;27636;52.610;13.244;2022-08-19T07:23:14;20.65;;;12.23;;
41943;SDS011;27636;52.610;13.244;2022-08-19T07:28:18;21.00;;;12.55;;
41943;SDS011;27636;52.610;13.244;2022-08-19T07:33:27;19.23;;;11.98;;
41943;SDS011;27636;52.610;13.244;2022-08-19T07:38:34;18.13;;;12.63;;
41943;SDS011;27636;52.610;13.244;2022-08-19T07:43:37;18.95;;;12.95;;
41943;SDS011;27636;52.610;13.244;2022-08-19T07:48:42;21.75;;;13.20;;
41943;SDS011;27636;52.610;13.244;2022-08-19T07:53:49;20.90;;;13.18;;
41943;SDS011;27636;52.610;13.244;2022-08-19T07:58:53;24.30;;;13.40;;
41943;SDS011;27636;52.610;13.244;2022-08-19T08:04:02;18.73;;;12.70;;
41943;SDS011;27636;52.610;13.244;2022-08-19T08:09:26;17.20;;;11.95;;
41943;SDS011;27636;52.610;13.244;2022-08-19T08:14:33;17.20;;;11.85;;
41943;SDS011;27636;52.610;13.244;2022-08-19T08:19:40;22.52;;;13.35;;
41943;SDS011;27636;52.610;13.244;2022-08-19T08:24:43;20.60;;;12.73;;
41943;SDS011;27636;52.610;13.244;2022-08-19T08:29:46;22.95;;;13.55;;
41943;SDS011;27636;52.610;13.244;2022-08-19T08:34:53;18.85;;;12.07;;
41943;SDS011;27636;52.610;13.244;2022-08-19T08:39:57;23.67;;;12.65;;
41943;SDS011;27636;52.610;13.244;2022-08-19T08:45:00;22.20;;;13.05;;
41943;SDS011;27636;52.610;13.244;2022-08-19T08:50:08;22.15;;;12.77;;
41943;SDS011;27636;52.610;13.244;2022-08-19T08:55:17;22.25;;;12.27;;
41943;SDS011;27636;52.610;13.244;2022-08-19T09:00:24;23.67;;;13.20;;
41943;SDS011;27636;52.610;13.244;2022-08-19T09:05:32;20.35;;;12.45;;
41943;SDS011;27636;52.610;13.244;2022-08-19T09:10:51;18.80;;;12.40;;
41943;SDS011;27636;52.610;13.244;2022-08-19T09:15:58;20.95;;;13.18;;
41943;SDS011;27636;52.610;13.244;2022-08-19T09:21:06;22.15;;;12.10;;
41943;SDS011;27636;52.610;13.244;2022-08-19T09:26:12;19.27;;;12.43;;
41943;SDS011;27636;52.610;13.244;2022-08-19T09:31:19;18.77;;;12.20;;
41943;SDS011;27636;52.610;13.244;2022-08-19T09:36:27;15.55;;;10.43;;
41943;SDS011;27636;52.610;13.244;2022-08-19T09:41:36;16.70;;;10.23;;
41943;SDS011;27636;52.610;13.244;2022-08-19T09:46:42;15.60;;;10.13;;
41943;SDS011;27636;52.610;13.244;2022-08-19T09:51:48;14.77;;;9.02;;
41943;SDS011;27636;52.610;13.244;2022-08-19T09:56:53;14.50;;;9.95;;
41943;SDS011;27636;52.610;13.244;2022-08-19T10:01:56;19.23;;;10.50;;
41943;SDS011;27636;52.610;13.244;2022-08-19T10:07:06;17.83;;;11.25;;
41943;SDS011;27636;52.610;13.244;2022-08-19T10:12:09;16.48;;;10.40;;
41943;SDS011;27636;52.610;13.244;2022-08-19T10:17:12;18.33;;;10.50;;
41943;SDS011;27636;52.610;13.244;2022-08-19T10:22:24;17.35;;;10.98;;
41943;SDS011;27636;52.610;13.244;2022-08-19T10:27:27;16.83;;;10.52;;
41943;SDS011;27636;52.610;13.244;2022-08-19T10:32:33;15.40;;;10.88;;
41943;SDS011;27636;52.610;13.244;2022-08-19T10:37:39;17.27;;;10.07;;
41943;SDS011;27636;52.610;13.244;2022-08-19T10:42:59;16.58;;;10.55;;
41943;SDS011;27636;52.610;13.244;2022-08-19T10:48:02;14.40;;;9.68;;
41943;SDS011;27636;52.610;13.244;2022-08-19T10:53:07;16.92;;;10.77;;
41943;SDS011;27636;52.610;13.244;2022-08-19T10:58:11;16.77;;;10.75;;
41943;SDS011;27636;52.610;13.244;2022-08-19T11:08:20;17.92;;;10.38;;
41943;SDS011;27636;52.610;13.244;2022-08-19T11:13:25;17.33;;;10.50;;
41943;SDS011;27636;52.610;13.244;2022-08-19T11:18:28;14.52;;;9.27;;
41943;SDS011;27636;52.610;13.244;2022-08-19T11:23:33;15.95;;;9.55;;
41943;SDS011;27636;52.610;13.244;2022-08-19T11:28:36;13.85;;;8.55;;
41943;SDS011;27636;52.610;13.244;2022-08-19T11:33:39;15.25;;;9.40;;
41943;SDS011;27636;52.610;13.244;2022-08-19T11:38:50;11.23;;;7.57;;
41943;SDS011;27636;52.610;13.244;2022-08-19T11:43:54;15.35;;;8.93;;
41943;SDS011;27636;52.610;13.244;2022-08-19T11:48:58;15.67;;;8.63;;
41943;SDS011;27636;52.610;13.244;2022-08-19T11:59:07;13.00;;;7.30;;
41943;SDS011;27636;52.610;13.244;2022-08-19T12:04:16;13.35;;;7.72;;
41943;SDS011;27636;52.610;13.244;2022-08-19T12:09:23;9.95;;;6.63;;
41943;SDS011;27636;52.610;13.244;2022-08-19T12:14:27;12.07;;;7.53;;
41943;SDS011;27636;52.610;13.244;2022-08-19T12:19:32;12.45;;;7.15;;
41943;SDS011;27636;52.610;13.244;2022-08-19T12:24:37;16.27;;;8.23;;
41943;SDS011;27636;52.610;13.244;2022-08-19T12:29:40;12.70;;;8.00;;
41943;SDS011;27636;52.610;13.244;2022-08-19T12:34:43;14.02;;;8.40;;
41943;SDS011;27636;52.610;13.244;2022-08-19T12:39:51;12.40;;;8.55;;
41943;SDS011;27636;52.610;13.244;2022-08-19T12:44:54;12.57;;;7.88;;
41943;SDS011;27636;52.610;13.244;2022-08-19T12:49:57;13.60;;;8.90;;
41943;SDS011;27636;52.610;13.244;2022-08-19T12:55:03;13.82;;;9.43;;
41943;SDS011;27636;52.610;13.244;2022-08-19T13:00:09;11.77;;;7.72;;
41943;SDS011;27636;52.610;13.244;2022-08-19T13:05:16;15.68;;;8.35;;
41943;SDS011;27636;52.610;13.244;2022-08-19T13:10:26;12.20;;;7.55;;
41943;SDS011;27636;52.610;13.244;2022-08-19T13:15:32;11.82;;;7.70;;
41943;SDS011;27636;52.610;13.244;2022-08-19T13:20:36;16.48;;;8.43;;
41943;SDS011;27636;52.610;13.244;2022-08-19T13:25:41;15.10;;;7.10;;
41943;SDS011;27636;52.610;13.244;2022-08-19T13:30:49;14.32;;;7.32;;
41943;SDS011;27636;52.610;13.244;2022-08-19T13:36:10;12.50;;;7.82;;
41943;SDS011;27636;52.610;13.244;2022-08-19T13:41:15;11.32;;;7.15;;
41943;SDS011;27636;52.610;13.244;2022-08-19T13:46:18;12.63;;;7.97;;
41943;SDS011;27636;52.610;13.244;2022-08-19T13:51:22;10.67;;;6.80;;
41943;SDS011;27636;52.610;13.244;2022-08-19T13:56:26;11.25;;;7.32;;
41943;SDS011;27636;52.610;13.244;2022-08-19T14:06:33;12.30;;;7.65;;
41943;SDS011;27636;52.610;13.244;2022-08-19T14:11:37;10.93;;;7.53;;
41943;SDS011;27636;52.610;13.244;2022-08-19T14:21:45;11.63;;;7.35;;
41943;SDS011;27636;52.610;13.244;2022-08-19T14:26:49;15.10;;;7.40;;
41943;SDS011;27636;52.610;13.244;2022-08-19T14:31:53;13.88;;;7.57;;
41943;SDS011;27636;52.610;13.244;2022-08-19T14:36:56;10.88;;;7.20;;
41943;SDS011;27636;52.610;13.244;2022-08-19T14:42:01;11.35;;;7.28;;
41943;SDS011;27636;52.610;13.244;2022-08-19T14:47:12;14.35;;;7.18;;
41943;SDS011;27636;52.610;13.244;2022-08-19T14:52:16;11.10;;;7.07;;
41943;SDS011;27636;52.610;13.244;2022-08-19T14:57:21;13.75;;;7.43;;
41943;SDS011;27636;52.610;13.244;2022-08-19T15:02:24;11.65;;;6.80;;
41943;SDS011;27636;52.610;13.244;2022-08-19T15:07:36;14.27;;;7.93;;
41943;SDS011;27636;52.610;13.244;2022-08-19T15:12:42;14.27;;;6.97;;
41943;SDS011;27636;52.610;13.244;2022-08-19T15:17:45;11.88;;;7.38;;
41943;SDS011;27636;52.610;13.244;2022-08-19T15:22:49;11.48;;;7.60;;
41943;SDS011;27636;52.610;13.244;2022-08-19T15:27:53;10.27;;;6.60;;
41943;SDS011;27636;52.610;13.244;2022-08-19T15:38:00;13.35;;;7.85;;
41943;SDS011;27636;52.610;13.244;2022-08-19T15:43:04;12.45;;;7.32;;
41943;SDS011;27636;52.610;13.244;2022-08-19T15:48:08;16.98;;;8.88;;
41943;SDS011;27636;52.610;13.244;2022-08-19T15:53:11;14.63;;;8.30;;
41943;SDS011;27636;52.610;13.244;2022-08-19T15:58:15;14.02;;;8.23;;
41943;SDS011;27636;52.610;13.244;2022-08-19T16:03:37;12.95;;;8.02;;
41943;SDS011;27636;52.610;13.244;2022-08-19T16:09:00;12.52;;;7.85;;
41943;SDS011;27636;52.610;13.244;2022-08-19T16:14:06;13.95;;;8.45;;
41943;SDS011;27636;52.610;13.244;2022-08-19T16:19:11;13.73;;;8.60;;
41943;SDS011;27636;52.610;13.244;2022-08-19T16:24:17;13.98;;;8.95;;
41943;SDS011;27636;52.610;13.244;2022-08-19T16:29:23;13.10;;;8.02;;
41943;SDS011;27636;52.610;13.244;2022-08-19T16:34:35;14.40;;;8.18;;
41943;SDS011;27636;52.610;13.244;2022-08-19T16:39:39;14.27;;;8.00;;
41943;SDS011;27636;52.610;13.244;2022-08-19T16:44:47;11.45;;;7.40;;
41943;SDS011;27636;52.610;13.244;2022-08-19T16:49:50;11.75;;;7.40;;
41943;SDS011;27636;52.610;13.244;2022-08-19T16:54:57;11.05;;;7.22;;
41943;SDS011;27636;52.610;13.244;2022-08-19T17:00:02;12.00;;;7.00;;
41943;SDS011;27636;52.610;13.244;2022-08-19T17:05:12;9.85;;;6.07;;
41943;SDS011;27636;52.610;13.244;2022-08-19T17:10:16;9.63;;;5.90;;
41943;SDS011;27636;52.610;13.244;2022-08-19T17:15:20;8.93;;;5.20;;
41943;SDS011;27636;52.610;13.244;2022-08-19T17:20:24;12.25;;;5.75;;
41943;SDS011;27636;52.610;13.244;2022-08-19T17:25:28;8.57;;;5.22;;
41943;SDS011;27636;52.610;13.244;2022-08-19T17:30:35;9.05;;;5.13;;
41943;SDS011;27636;52.610;13.244;2022-08-19T17:35:38;9.30;;;5.88;;
41943;SDS011;27636;52.610;13.244;2022-08-19T17:40:45;10.57;;;5.70;;
41943;SDS011;27636;52.610;13.244;2022-08-19T17:45:50;10.30;;;6.20;;
41943;SDS011;27636;52.610;13.244;2022-08-19T17:50:53;10.85;;;6.30;;
41943;SDS011;27636;52.610;13.244;2022-08-19T17:55:57;11.57;;;6.40;;
41943;SDS011;27636;52.610;13.244;2022-08-19T18:01:02;14.70;;;6.43;;
41943;SDS011;27636;52.610;13.244;2022-08-19T18:06:08;13.05;;;6.63;;
41943;SDS011;27636;52.610;13.244;2022-08-19T18:16:18;14.57;;;7.05;;
41943;SDS011;27636;52.610;13.244;2022-08-19T18:21:23;11.93;;;6.25;;
41943;SDS011;27636;52.610;13.244;2022-08-19T18:26:32;13.48;;;7.57;;
41943;SDS011;27636;52.610;13.244;2022-08-19T18:31:37;11.27;;;6.83;;
41943;SDS011;27636;52.610;13.244;2022-08-19T18:36:41;11.10;;;6.28;;
41943;SDS011;27636;52.610;13.244;2022-08-19T18:41:55;12.68;;;7.63;;
41943;SDS011;27636;52.610;13.244;2022-08-19T18:47:18;12.65;;;7.88;;
41943;SDS011;27636;52.610;13.244;2022-08-19T18:52:40;12.15;;;7.68;;
41943;SDS011;27636;52.610;13.244;2022-08-19T18:57:43;15.32;;;9.10;;
41943;SDS011;27636;52.610;13.244;2022-08-19T19:02:48;17.65;;;9.55;;
41943;SDS011;27636;52.610;13.244;2022-08-19T19:07:51;16.88;;;9.32;;
41943;SDS011;27636;52.610;13.244;2022-08-19T19:12:55;21.90;;;10.00;;
41943;SDS011;27636;52.610;13.244;2022-08-19T19:18:00;22.65;;;12.48;;
41943;SDS011;27636;52.610;13.244;2022-08-19T19:23:03;22.00;;;11.65;;
41943;SDS011;27636;52.610;13.244;2022-08-19T19:28:06;20.75;;;11.82;;
41943;SDS011;27636;52.610;13.244;2022-08-19T19:33:17;21.10;;;12.02;;
41943;SDS011;27636;52.610;13.244;2022-08-19T19:38:21;22.92;;;13.35;;
41943;SDS011;27636;52.610;13.244;2022-08-19T19:43:24;25.42;;;14.27;;
41943;SDS011;27636;52.610;13.244;2022-08-19T19:48:29;26.52;;;14.65;;
41943;SDS011;27636;52.610;13.244;2022-08-19T19:53:32;28.92;;;15.25;;
41943;SDS011;27636;52.610;13.244;2022-08-19T19:58:35;28.70;;;14.98;;
41943;SDS011;27636;52.610;13.244;2022-08-19T20:03:42;25.75;;;13.85;;
41943;SDS011;27636;52.610;13.244;2022-08-19T20:08:46;28.40;;;14.23;;
41943;SDS011;27636;52.610;13.244;2022-08-19T20:14:09;30.38;;;15.85;;
41943;SDS011;27636;52.610;13.244;2022-08-19T20:19:16;30.08;;;16.55;;
41943;SDS011;27636;52.610;13.244;2022-08-19T20:24:24;29.55;;;15.20;;
41943;SDS011;27636;52.610;13.244;2022-08-19T20:29:29;27.25;;;15.18;;
41943;SDS011;27636;52.610;13.244;2022-08-19T20:34:44;26.02;;;15.00;;
41943;SDS011;27636;52.610;13.244;2022-08-19T20:39:50;26.75;;;14.57;;
41943;SDS011;27636;52.610;13.244;2022-08-19T20:44:53;29.13;;;15.07;;
41943;SDS011;27636;52.610;13.244;2022-08-19T20:49:58;31.30;;;15.95;;
41943;SDS011;27636;52.610;13.244;2022-08-19T20:55:01;32.17;;;16.88;;
41943;SDS011;27636;52.610;13.244;2022-08-19T21:00:05;26.60;;;14.07;;
41943;SDS011;27636;52.610;13.244;2022-08-19T21:05:14;27.75;;;14.57;;
41943;SDS011;27636;52.610;13.244;2022-08-19T21:10:17;26.17;;;14.27;;
41943;SDS011;27636;52.610;13.244;2022-08-19T21:15:20;26.85;;;14.70;;
41943;SDS011;27636;52.610;13.244;2022-08-19T21:20:27;24.70;;;13.25;;
41943;SDS011;27636;52.610;13.244;2022-08-19T21:25:30;29.40;;;15.20;;
41943;SDS011;27636;52.610;13.244;2022-08-19T22:07:21;27.95;;;13.88;;
41943;SDS011;27636;52.610;13.244;2022-08-19T22:12:25;22.40;;;12.15;;
41943;SDS011;27636;52.610;13.244;2022-08-19T22:17:30;27.65;;;13.88;;
41943;SDS011;27636;52.610;13.244;2022-08-19T22:22:35;26.77;;;13.93;;
41943;SDS011;27636;52.610;13.244;2022-08-19T22:27:40;22.17;;;12.65;;
41943;SDS011;27636;52.610;13.244;2022-08-19T22:32:44;21.90;;;12.35;;
41943;SDS011;27636;52.610;13.244;2022-08-19T22:37:49;24.87;;;12.40;;
41943;SDS011;27636;52.610;13.244;2022-08-19T22:48:02;22.13;;;12.57;;
41943;SDS011;27636;52.610;13.244;2022-08-19T22:53:10;27.92;;;13.38;;
41943;SDS011;27636;52.610;13.244;2022-08-19T22:58:13;24.60;;;12.75;;
41943;SDS011;27636;52.610;13.244;2022-08-19T23:03:29;23.77;;;13.40;;
41943;SDS011;27636;52.610;13.244;2022-08-19T23:08:33;24.45;;;13.15;;
41943;SDS011;27636;52.610;13.244;2022-08-19T23:13:39;21.48;;;11.77;;
41943;SDS011;27636;52.610;13.244;2022-08-19T23:18:43;21.42;;;12.23;;
41943;SDS011;27636;52.610;13.244;2022-08-19T23:23:48;21.23;;;11.93;;
41943;SDS011;27636;52.610;13.244;2022-08-19T23:28:51;20.58;;;11.40;;
41943;SDS011;27636;52.610;13.244;2022-08-19T23:34:13;22.23;;;11.85;;
41943;SDS011;27636;52.610;13.244;2022-08-19T23:39:18;21.90;;;10.68;;
41943;SDS011;27636;52.610;13.244;2022-08-19T23:44:21;21.50;;;12.00;;
41943;SDS011;27636;52.610;13.244;2022-08-19T23:49:24;23.15;;;12.40;;
41943;SDS011;27636;52.610;13.244;2022-08-19T23:54:29;23.38;;;12.45;;
41943;SDS011;27636;52.610;13.244;2022-08-19T23:59:45;25.23;;;12.48;;
